sensor_id;sensor_type;location;lat;lon;timestamp;temperature;humidity
67273;DHT22;54190;49.770;9.250;2023-06-26T00:02:16;18.30;99.90
67273;DHT22;54190;49.770;9.250;2023-06-26T00:04:43;18.30;99.90
67273;DHT22;54190;49.770;9.250;2023-06-26T00:07:09;18.20;99.90
67273;DHT22;54190;49.770;9.250;2023-06-26T00:09:34;18.10;99.90
67273;DHT22;54190;49.770;9.250;2023-06-26T00:12:00;18.00;99.90
67273;DHT22;54190;49.770;9.250;2023-06-26T00:14:26;18.00;99.90
67273;DHT22;54190;49.770;9.250;2023-06-26T00:16:52;18.10;99.90
67273;DHT22;54190;49.770;9.250;2023-06-26T00:19:18;18.00;99.90
67273;DHT22;54190;49.770;9.250;2023-06-26T00:21:44;17.90;99.90
67273;DHT22;54190;49.770;9.250;2023-06-26T00:24:14;17.90;99.90
67273;DHT22;54190;49.770;9.250;2023-06-26T00:26:40;17.80;99.90
67273;DHT22;54190;49.770;9.250;2023-06-26T00:29:05;17.90;99.90
67273;DHT22;54190;49.770;9.250;2023-06-26T00:31:32;17.90;99.90
67273;DHT22;54190;49.770;9.250;2023-06-26T00:34:01;17.90;99.90
67273;DHT22;54190;49.770;9.250;2023-06-26T00:36:27;17.80;99.90
67273;DHT22;54190;49.770;9.250;2023-06-26T00:38:53;17.80;99.90
67273;DHT22;54190;49.770;9.250;2023-06-26T00:41:19;17.70;99.90
67273;DHT22;54190;49.770;9.250;2023-06-26T00:43:44;17.70;99.90
67273;DHT22;54190;49.770;9.250;2023-06-26T00:46:12;17.70;99.90
67273;DHT22;54190;49.770;9.250;2023-06-26T00:48:39;17.70;99.90
67273;DHT22;54190;49.770;9.250;2023-06-26T00:51:07;17.70;99.90
67273;DHT22;54190;49.770;9.250;2023-06-26T00:53:33;17.70;99.90
67273;DHT22;54190;49.770;9.250;2023-06-26T00:56:00;17.70;99.90
67273;DHT22;54190;49.770;9.250;2023-06-26T00:58:26;17.70;99.90
67273;DHT22;54190;49.770;9.250;2023-06-26T01:00:52;17.70;99.90
67273;DHT22;54190;49.770;9.250;2023-06-26T01:03:19;17.60;99.90
67273;DHT22;54190;49.770;9.250;2023-06-26T01:05:46;17.50;99.90
67273;DHT22;54190;49.770;9.250;2023-06-26T01:08:18;17.50;99.90
67273;DHT22;54190;49.770;9.250;2023-06-26T01:10:45;17.50;99.90
67273;DHT22;54190;49.770;9.250;2023-06-26T01:13:12;17.50;99.90
67273;DHT22;54190;49.770;9.250;2023-06-26T01:15:40;17.50;99.90
67273;DHT22;54190;49.770;9.250;2023-06-26T01:18:05;17.50;99.90
67273;DHT22;54190;49.770;9.250;2023-06-26T01:20:36;17.40;99.90
67273;DHT22;54190;49.770;9.250;2023-06-26T01:28:34;17.30;99.90
67273;DHT22;54190;49.770;9.250;2023-06-26T01:31:04;17.20;99.90
67273;DHT22;54190;49.770;9.250;2023-06-26T01:33:31;17.20;99.90
67273;DHT22;54190;49.770;9.250;2023-06-26T01:35:57;17.20;99.90
67273;DHT22;54190;49.770;9.250;2023-06-26T01:38:22;17.30;99.90
67273;DHT22;54190;49.770;9.250;2023-06-26T01:40:49;17.30;99.90
67273;DHT22;54190;49.770;9.250;2023-06-26T01:43:24;17.30;99.90
67273;DHT22;54190;49.770;9.250;2023-06-26T01:45:55;17.20;99.90
67273;DHT22;54190;49.770;9.250;2023-06-26T01:48:25;17.00;99.90
67273;DHT22;54190;49.770;9.250;2023-06-26T01:50:53;17.00;99.90
67273;DHT22;54190;49.770;9.250;2023-06-26T01:53:22;17.00;99.90
67273;DHT22;54190;49.770;9.250;2023-06-26T01:55:55;17.00;99.90
67273;DHT22;54190;49.770;9.250;2023-06-26T01:58:23;16.90;99.90
67273;DHT22;54190;49.770;9.250;2023-06-26T02:00:49;16.90;99.90
67273;DHT22;54190;49.770;9.250;2023-06-26T02:03:15;16.90;99.90
67273;DHT22;54190;49.770;9.250;2023-06-26T02:05:41;16.80;99.90
67273;DHT22;54190;49.770;9.250;2023-06-26T02:08:08;16.80;99.90
67273;DHT22;54190;49.770;9.250;2023-06-26T02:10:34;16.80;99.90
67273;DHT22;54190;49.770;9.250;2023-06-26T02:13:00;16.80;99.90
67273;DHT22;54190;49.770;9.250;2023-06-26T02:15:26;16.70;99.90
67273;DHT22;54190;49.770;9.250;2023-06-26T02:17:53;16.70;99.90
67273;DHT22;54190;49.770;9.250;2023-06-26T02:20:19;16.60;99.90
67273;DHT22;54190;49.770;9.250;2023-06-26T02:22:45;16.60;99.90
67273;DHT22;54190;49.770;9.250;2023-06-26T02:25:10;16.60;99.90
67273;DHT22;54190;49.770;9.250;2023-06-26T02:27:38;16.50;99.90
67273;DHT22;54190;49.770;9.250;2023-06-26T02:30:04;16.40;99.90
67273;DHT22;54190;49.770;9.250;2023-06-26T02:32:29;16.40;99.90
67273;DHT22;54190;49.770;9.250;2023-06-26T02:34:55;16.40;99.90
67273;DHT22;54190;49.770;9.250;2023-06-26T02:37:21;16.40;99.90
67273;DHT22;54190;49.770;9.250;2023-06-26T02:39:47;16.50;99.90
67273;DHT22;54190;49.770;9.250;2023-06-26T02:42:13;16.50;99.90
67273;DHT22;54190;49.770;9.250;2023-06-26T02:44:40;16.40;99.90
67273;DHT22;54190;49.770;9.250;2023-06-26T02:47:06;16.40;99.90
67273;DHT22;54190;49.770;9.250;2023-06-26T02:49:33;16.30;99.90
67273;DHT22;54190;49.770;9.250;2023-06-26T02:51:58;16.30;99.90
67273;DHT22;54190;49.770;9.250;2023-06-26T02:54:27;16.30;99.90
67273;DHT22;54190;49.770;9.250;2023-06-26T02:56:57;16.30;99.90
67273;DHT22;54190;49.770;9.250;2023-06-26T02:59:27;16.30;99.90
67273;DHT22;54190;49.770;9.250;2023-06-26T03:01:54;16.30;99.90
67273;DHT22;54190;49.770;9.250;2023-06-26T03:04:24;16.30;99.90
67273;DHT22;54190;49.770;9.250;2023-06-26T03:06:50;16.30;99.90
67273;DHT22;54190;49.770;9.250;2023-06-26T03:09:15;16.30;99.90
67273;DHT22;54190;49.770;9.250;2023-06-26T03:11:42;16.30;99.90
67273;DHT22;54190;49.770;9.250;2023-06-26T03:14:09;16.20;99.90
67273;DHT22;54190;49.770;9.250;2023-06-26T03:16:36;16.20;99.90
67273;DHT22;54190;49.770;9.250;2023-06-26T03:19:02;16.20;99.90
67273;DHT22;54190;49.770;9.250;2023-06-26T03:21:28;16.10;99.90
67273;DHT22;54190;49.770;9.250;2023-06-26T03:23:54;16.10;99.90
67273;DHT22;54190;49.770;9.250;2023-06-26T03:26:19;16.10;99.90
67273;DHT22;54190;49.770;9.250;2023-06-26T03:28:47;16.10;99.90
67273;DHT22;54190;49.770;9.250;2023-06-26T03:31:13;16.10;99.90
67273;DHT22;54190;49.770;9.250;2023-06-26T03:33:40;16.00;99.90
67273;DHT22;54190;49.770;9.250;2023-06-26T03:36:07;16.10;99.90
67273;DHT22;54190;49.770;9.250;2023-06-26T03:38:33;16.00;99.90
67273;DHT22;54190;49.770;9.250;2023-06-26T03:40:59;16.00;99.90
67273;DHT22;54190;49.770;9.250;2023-06-26T03:43:25;16.10;99.90
67273;DHT22;54190;49.770;9.250;2023-06-26T03:46:02;16.00;99.90
67273;DHT22;54190;49.770;9.250;2023-06-26T03:48:27;16.00;99.90
67273;DHT22;54190;49.770;9.250;2023-06-26T03:50:54;16.10;99.90
67273;DHT22;54190;49.770;9.250;2023-06-26T03:53:21;16.10;99.90
67273;DHT22;54190;49.770;9.250;2023-06-26T03:55:47;16.10;99.90
67273;DHT22;54190;49.770;9.250;2023-06-26T03:58:12;16.10;99.90
67273;DHT22;54190;49.770;9.250;2023-06-26T04:00:38;16.10;99.90
67273;DHT22;54190;49.770;9.250;2023-06-26T04:03:03;16.10;99.90
67273;DHT22;54190;49.770;9.250;2023-06-26T04:05:31;16.10;99.90
67273;DHT22;54190;49.770;9.250;2023-06-26T04:07:57;16.10;99.90
67273;DHT22;54190;49.770;9.250;2023-06-26T04:10:22;16.10;99.90
67273;DHT22;54190;49.770;9.250;2023-06-26T04:12:48;16.10;99.90
67273;DHT22;54190;49.770;9.250;2023-06-26T04:15:14;16.10;99.90
67273;DHT22;54190;49.770;9.250;2023-06-26T04:17:39;16.10;99.90
67273;DHT22;54190;49.770;9.250;2023-06-26T04:20:06;16.10;99.90
67273;DHT22;54190;49.770;9.250;2023-06-26T04:22:32;16.20;99.90
67273;DHT22;54190;49.770;9.250;2023-06-26T04:24:58;16.30;99.90
67273;DHT22;54190;49.770;9.250;2023-06-26T04:27:23;16.30;99.90
67273;DHT22;54190;49.770;9.250;2023-06-26T04:29:49;16.30;99.90
67273;DHT22;54190;49.770;9.250;2023-06-26T04:32:15;16.40;99.90
67273;DHT22;54190;49.770;9.250;2023-06-26T04:34:40;16.40;99.90
67273;DHT22;54190;49.770;9.250;2023-06-26T04:37:09;16.50;99.90
67273;DHT22;54190;49.770;9.250;2023-06-26T04:39:36;16.50;99.90
67273;DHT22;54190;49.770;9.250;2023-06-26T04:42:03;16.50;99.90
67273;DHT22;54190;49.770;9.250;2023-06-26T04:44:29;16.60;99.90
67273;DHT22;54190;49.770;9.250;2023-06-26T04:46:54;16.60;99.90
67273;DHT22;54190;49.770;9.250;2023-06-26T04:49:20;16.60;99.90
67273;DHT22;54190;49.770;9.250;2023-06-26T04:51:46;16.60;99.90
67273;DHT22;54190;49.770;9.250;2023-06-26T04:54:11;16.70;99.90
67273;DHT22;54190;49.770;9.250;2023-06-26T04:56:37;16.70;99.90
67273;DHT22;54190;49.770;9.250;2023-06-26T04:59:05;16.70;99.90
67273;DHT22;54190;49.770;9.250;2023-06-26T05:01:31;16.80;99.90
67273;DHT22;54190;49.770;9.250;2023-06-26T05:03:58;16.80;99.90
67273;DHT22;54190;49.770;9.250;2023-06-26T05:06:24;16.80;99.90
67273;DHT22;54190;49.770;9.250;2023-06-26T05:08:49;16.80;99.90
67273;DHT22;54190;49.770;9.250;2023-06-26T05:11:15;16.80;99.90
67273;DHT22;54190;49.770;9.250;2023-06-26T05:13:41;16.80;99.90
67273;DHT22;54190;49.770;9.250;2023-06-26T05:16:08;16.80;99.90
67273;DHT22;54190;49.770;9.250;2023-06-26T05:18:35;16.80;99.90
67273;DHT22;54190;49.770;9.250;2023-06-26T05:21:01;16.90;99.90
67273;DHT22;54190;49.770;9.250;2023-06-26T05:23:32;16.90;99.90
67273;DHT22;54190;49.770;9.250;2023-06-26T05:25:58;17.00;99.90
67273;DHT22;54190;49.770;9.250;2023-06-26T05:28:24;17.10;99.90
67273;DHT22;54190;49.770;9.250;2023-06-26T05:30:51;17.10;99.90
67273;DHT22;54190;49.770;9.250;2023-06-26T05:33:18;17.20;99.90
67273;DHT22;54190;49.770;9.250;2023-06-26T05:35:45;17.20;99.90
67273;DHT22;54190;49.770;9.250;2023-06-26T05:38:12;17.20;99.90
67273;DHT22;54190;49.770;9.250;2023-06-26T05:40:39;17.30;99.90
67273;DHT22;54190;49.770;9.250;2023-06-26T05:43:06;17.30;99.90
67273;DHT22;54190;49.770;9.250;2023-06-26T05:45:32;17.40;99.90
67273;DHT22;54190;49.770;9.250;2023-06-26T05:47:58;17.40;99.90
67273;DHT22;54190;49.770;9.250;2023-06-26T05:50:24;17.40;99.90
67273;DHT22;54190;49.770;9.250;2023-06-26T05:52:50;17.40;99.90
67273;DHT22;54190;49.770;9.250;2023-06-26T05:55:16;17.40;99.90
67273;DHT22;54190;49.770;9.250;2023-06-26T05:57:42;17.40;99.90
67273;DHT22;54190;49.770;9.250;2023-06-26T06:00:09;17.60;99.90
67273;DHT22;54190;49.770;9.250;2023-06-26T06:02:39;17.60;99.90
67273;DHT22;54190;49.770;9.250;2023-06-26T06:05:06;17.60;99.90
67273;DHT22;54190;49.770;9.250;2023-06-26T06:07:33;17.70;99.90
67273;DHT22;54190;49.770;9.250;2023-06-26T06:09:59;17.80;99.90
67273;DHT22;54190;49.770;9.250;2023-06-26T06:12:25;17.90;99.90
67273;DHT22;54190;49.770;9.250;2023-06-26T06:14:51;17.90;99.90
67273;DHT22;54190;49.770;9.250;2023-06-26T06:17:18;18.00;99.90
67273;DHT22;54190;49.770;9.250;2023-06-26T06:19:44;18.00;99.90
67273;DHT22;54190;49.770;9.250;2023-06-26T06:22:10;18.10;99.90
67273;DHT22;54190;49.770;9.250;2023-06-26T06:24:35;18.20;99.90
67273;DHT22;54190;49.770;9.250;2023-06-26T06:27:01;18.20;99.90
67273;DHT22;54190;49.770;9.250;2023-06-26T06:29:27;18.30;99.90
67273;DHT22;54190;49.770;9.250;2023-06-26T06:31:52;18.40;99.90
67273;DHT22;54190;49.770;9.250;2023-06-26T06:34:18;18.40;99.90
67273;DHT22;54190;49.770;9.250;2023-06-26T06:36:43;18.60;99.90
67273;DHT22;54190;49.770;9.250;2023-06-26T06:39:09;18.60;99.90
67273;DHT22;54190;49.770;9.250;2023-06-26T06:41:35;18.70;99.90
67273;DHT22;54190;49.770;9.250;2023-06-26T06:44:04;18.90;99.90
67273;DHT22;54190;49.770;9.250;2023-06-26T06:46:30;19.00;99.90
67273;DHT22;54190;49.770;9.250;2023-06-26T06:48:55;19.20;99.90
67273;DHT22;54190;49.770;9.250;2023-06-26T06:51:22;19.30;99.90
67273;DHT22;54190;49.770;9.250;2023-06-26T06:53:48;19.40;99.90
67273;DHT22;54190;49.770;9.250;2023-06-26T06:56:13;19.60;99.90
67273;DHT22;54190;49.770;9.250;2023-06-26T06:58:39;19.70;99.90
67273;DHT22;54190;49.770;9.250;2023-06-26T07:01:09;19.90;99.90
67273;DHT22;54190;49.770;9.250;2023-06-26T07:03:34;20.10;99.90
67273;DHT22;54190;49.770;9.250;2023-06-26T07:06:02;20.30;99.90
67273;DHT22;54190;49.770;9.250;2023-06-26T07:08:29;20.50;99.90
67273;DHT22;54190;49.770;9.250;2023-06-26T07:10:54;20.70;99.90
67273;DHT22;54190;49.770;9.250;2023-06-26T07:13:22;20.80;99.90
67273;DHT22;54190;49.770;9.250;2023-06-26T07:15:48;20.90;99.90
67273;DHT22;54190;49.770;9.250;2023-06-26T07:18:14;21.10;99.90
67273;DHT22;54190;49.770;9.250;2023-06-26T07:20:40;21.30;99.90
67273;DHT22;54190;49.770;9.250;2023-06-26T07:23:06;21.50;99.90
67273;DHT22;54190;49.770;9.250;2023-06-26T07:25:31;21.70;99.90
67273;DHT22;54190;49.770;9.250;2023-06-26T07:27:57;21.90;99.90
67273;DHT22;54190;49.770;9.250;2023-06-26T07:30:23;22.10;99.90
67273;DHT22;54190;49.770;9.250;2023-06-26T07:32:50;22.30;99.90
67273;DHT22;54190;49.770;9.250;2023-06-26T07:35:16;22.60;99.90
67273;DHT22;54190;49.770;9.250;2023-06-26T07:37:42;22.80;99.90
67273;DHT22;54190;49.770;9.250;2023-06-26T07:40:08;23.10;99.90
67273;DHT22;54190;49.770;9.250;2023-06-26T07:42:34;23.20;99.90
67273;DHT22;54190;49.770;9.250;2023-06-26T07:45:00;23.40;99.90
67273;DHT22;54190;49.770;9.250;2023-06-26T07:47:25;23.70;99.90
67273;DHT22;54190;49.770;9.250;2023-06-26T07:49:51;23.90;99.90
67273;DHT22;54190;49.770;9.250;2023-06-26T07:52:19;24.10;99.90
67273;DHT22;54190;49.770;9.250;2023-06-26T07:54:45;24.30;99.90
67273;DHT22;54190;49.770;9.250;2023-06-26T07:57:10;24.50;99.90
67273;DHT22;54190;49.770;9.250;2023-06-26T07:59:37;24.70;99.50
67273;DHT22;54190;49.770;9.250;2023-06-26T08:02:03;24.90;98.20
67273;DHT22;54190;49.770;9.250;2023-06-26T08:04:29;25.10;98.50
67273;DHT22;54190;49.770;9.250;2023-06-26T08:06:58;25.20;97.90
67273;DHT22;54190;49.770;9.250;2023-06-26T08:09:26;25.40;97.40
67273;DHT22;54190;49.770;9.250;2023-06-26T08:11:53;25.60;97.80
67273;DHT22;54190;49.770;9.250;2023-06-26T08:14:19;25.70;98.50
67273;DHT22;54190;49.770;9.250;2023-06-26T08:16:45;25.90;96.90
67273;DHT22;54190;49.770;9.250;2023-06-26T08:19:12;26.00;96.20
67273;DHT22;54190;49.770;9.250;2023-06-26T08:21:37;26.20;96.00
67273;DHT22;54190;49.770;9.250;2023-06-26T08:24:03;26.40;95.40
67273;DHT22;54190;49.770;9.250;2023-06-26T08:26:29;26.50;95.30
67273;DHT22;54190;49.770;9.250;2023-06-26T08:28:55;26.60;95.90
67273;DHT22;54190;49.770;9.250;2023-06-26T08:31:20;26.80;95.00
67273;DHT22;54190;49.770;9.250;2023-06-26T08:33:46;26.90;95.40
67273;DHT22;54190;49.770;9.250;2023-06-26T08:36:12;27.10;95.80
67273;DHT22;54190;49.770;9.250;2023-06-26T08:38:38;27.20;95.20
67273;DHT22;54190;49.770;9.250;2023-06-26T08:41:09;27.30;94.90
67273;DHT22;54190;49.770;9.250;2023-06-26T08:43:35;27.50;93.00
67273;DHT22;54190;49.770;9.250;2023-06-26T08:46:02;27.60;93.50
67273;DHT22;54190;49.770;9.250;2023-06-26T08:48:32;27.80;90.50
67273;DHT22;54190;49.770;9.250;2023-06-26T08:51:01;27.90;90.70
67273;DHT22;54190;49.770;9.250;2023-06-26T08:53:36;28.10;91.90
67273;DHT22;54190;49.770;9.250;2023-06-26T08:56:07;28.20;91.50
67273;DHT22;54190;49.770;9.250;2023-06-26T08:58:34;28.40;89.40
67273;DHT22;54190;49.770;9.250;2023-06-26T09:01:02;28.50;88.10
67273;DHT22;54190;49.770;9.250;2023-06-26T09:03:29;28.60;88.70
67273;DHT22;54190;49.770;9.250;2023-06-26T09:05:55;28.70;90.00
67273;DHT22;54190;49.770;9.250;2023-06-26T09:08:21;28.80;87.10
67273;DHT22;54190;49.770;9.250;2023-06-26T09:10:47;28.90;86.20
67273;DHT22;54190;49.770;9.250;2023-06-26T09:13:13;29.00;84.90
67273;DHT22;54190;49.770;9.250;2023-06-26T09:15:42;29.10;81.00
67273;DHT22;54190;49.770;9.250;2023-06-26T09:18:08;29.20;82.10
67273;DHT22;54190;49.770;9.250;2023-06-26T09:20:34;29.30;80.20
67273;DHT22;54190;49.770;9.250;2023-06-26T09:23:00;29.40;85.10
67273;DHT22;54190;49.770;9.250;2023-06-26T09:25:27;29.50;78.60
67273;DHT22;54190;49.770;9.250;2023-06-26T09:27:53;29.70;76.50
67273;DHT22;54190;49.770;9.250;2023-06-26T09:30:19;29.70;77.40
67273;DHT22;54190;49.770;9.250;2023-06-26T09:32:46;29.70;77.60
67273;DHT22;54190;49.770;9.250;2023-06-26T09:35:12;29.80;73.50
67273;DHT22;54190;49.770;9.250;2023-06-26T09:37:38;29.70;73.10
67273;DHT22;54190;49.770;9.250;2023-06-26T09:40:04;29.70;69.90
67273;DHT22;54190;49.770;9.250;2023-06-26T09:42:31;29.70;74.00
67273;DHT22;54190;49.770;9.250;2023-06-26T09:44:57;29.60;73.00
67273;DHT22;54190;49.770;9.250;2023-06-26T09:47:24;29.60;72.20
67273;DHT22;54190;49.770;9.250;2023-06-26T09:49:49;29.70;71.40
67273;DHT22;54190;49.770;9.250;2023-06-26T09:52:18;29.80;75.00
67273;DHT22;54190;49.770;9.250;2023-06-26T09:54:45;30.00;73.70
67273;DHT22;54190;49.770;9.250;2023-06-26T09:57:18;30.00;70.10
67273;DHT22;54190;49.770;9.250;2023-06-26T09:59:44;30.00;68.90
67273;DHT22;54190;49.770;9.250;2023-06-26T10:02:11;30.10;70.80
67273;DHT22;54190;49.770;9.250;2023-06-26T10:04:37;30.20;69.90
67273;DHT22;54190;49.770;9.250;2023-06-26T10:07:06;30.10;70.30
67273;DHT22;54190;49.770;9.250;2023-06-26T10:09:32;30.00;68.60
67273;DHT22;54190;49.770;9.250;2023-06-26T10:12:02;29.90;70.20
67273;DHT22;54190;49.770;9.250;2023-06-26T10:14:34;29.80;67.10
67273;DHT22;54190;49.770;9.250;2023-06-26T10:17:09;29.70;67.80
67273;DHT22;54190;49.770;9.250;2023-06-26T10:19:40;29.60;69.70
67273;DHT22;54190;49.770;9.250;2023-06-26T10:22:07;29.40;70.80
67273;DHT22;54190;49.770;9.250;2023-06-26T10:24:35;29.40;71.20
67273;DHT22;54190;49.770;9.250;2023-06-26T10:27:09;29.40;73.20
67273;DHT22;54190;49.770;9.250;2023-06-26T10:29:36;29.50;72.10
67273;DHT22;54190;49.770;9.250;2023-06-26T10:32:04;29.70;73.00
67273;DHT22;54190;49.770;9.250;2023-06-26T10:34:31;29.80;72.70
67273;DHT22;54190;49.770;9.250;2023-06-26T10:37:01;29.80;72.40
67273;DHT22;54190;49.770;9.250;2023-06-26T10:39:27;29.90;71.00
67273;DHT22;54190;49.770;9.250;2023-06-26T10:41:55;30.00;71.80
67273;DHT22;54190;49.770;9.250;2023-06-26T10:44:21;30.20;73.00
67273;DHT22;54190;49.770;9.250;2023-06-26T10:46:51;30.20;70.00
67273;DHT22;54190;49.770;9.250;2023-06-26T10:49:25;30.10;70.60
67273;DHT22;54190;49.770;9.250;2023-06-26T10:51:51;30.10;70.90
67273;DHT22;54190;49.770;9.250;2023-06-26T10:54:18;30.20;69.80
67273;DHT22;54190;49.770;9.250;2023-06-26T10:56:51;30.30;73.00
67273;DHT22;54190;49.770;9.250;2023-06-26T10:59:23;30.50;73.90
67273;DHT22;54190;49.770;9.250;2023-06-26T11:01:59;30.70;71.20
67273;DHT22;54190;49.770;9.250;2023-06-26T11:04:42;30.80;69.30
67273;DHT22;54190;49.770;9.250;2023-06-26T11:07:20;31.00;67.40
67273;DHT22;54190;49.770;9.250;2023-06-26T11:12:43;30.90;66.40
67273;DHT22;54190;49.770;9.250;2023-06-26T11:15:09;30.50;67.80
67273;DHT22;54190;49.770;9.250;2023-06-26T11:17:36;30.40;70.00
67273;DHT22;54190;49.770;9.250;2023-06-26T11:20:04;30.40;66.80
67273;DHT22;54190;49.770;9.250;2023-06-26T11:22:31;30.20;68.80
67273;DHT22;54190;49.770;9.250;2023-06-26T11:24:59;30.10;69.00
67273;DHT22;54190;49.770;9.250;2023-06-26T11:27:40;30.10;69.80
67273;DHT22;54190;49.770;9.250;2023-06-26T11:30:07;30.10;68.70
67273;DHT22;54190;49.770;9.250;2023-06-26T11:32:33;29.90;68.30
67273;DHT22;54190;49.770;9.250;2023-06-26T11:34:59;29.80;69.30
67273;DHT22;54190;49.770;9.250;2023-06-26T11:37:25;29.70;68.90
67273;DHT22;54190;49.770;9.250;2023-06-26T11:39:51;29.70;70.30
67273;DHT22;54190;49.770;9.250;2023-06-26T11:42:18;29.90;68.80
67273;DHT22;54190;49.770;9.250;2023-06-26T11:44:44;29.90;69.20
67273;DHT22;54190;49.770;9.250;2023-06-26T11:47:17;29.90;69.40
67273;DHT22;54190;49.770;9.250;2023-06-26T11:49:44;30.00;69.40
67273;DHT22;54190;49.770;9.250;2023-06-26T11:52:10;30.00;70.60
67273;DHT22;54190;49.770;9.250;2023-06-26T11:54:36;30.10;68.50
67273;DHT22;54190;49.770;9.250;2023-06-26T11:57:01;30.10;68.50
67273;DHT22;54190;49.770;9.250;2023-06-26T11:59:40;30.10;67.10
67273;DHT22;54190;49.770;9.250;2023-06-26T12:02:07;30.00;69.40
67273;DHT22;54190;49.770;9.250;2023-06-26T12:04:33;30.00;71.30
67273;DHT22;54190;49.770;9.250;2023-06-26T12:07:01;30.10;71.80
67273;DHT22;54190;49.770;9.250;2023-06-26T12:09:29;30.30;72.50
67273;DHT22;54190;49.770;9.250;2023-06-26T12:11:56;30.50;70.10
67273;DHT22;54190;49.770;9.250;2023-06-26T12:14:23;30.70;69.70
67273;DHT22;54190;49.770;9.250;2023-06-26T12:16:53;30.80;69.50
67273;DHT22;54190;49.770;9.250;2023-06-26T12:19:24;30.90;70.00
67273;DHT22;54190;49.770;9.250;2023-06-26T12:21:51;31.10;71.50
67273;DHT22;54190;49.770;9.250;2023-06-26T12:24:21;31.10;68.70
67273;DHT22;54190;49.770;9.250;2023-06-26T12:26:52;31.00;65.80
67273;DHT22;54190;49.770;9.250;2023-06-26T12:29:32;30.80;67.70
67273;DHT22;54190;49.770;9.250;2023-06-26T12:31:59;30.60;68.30
67273;DHT22;54190;49.770;9.250;2023-06-26T12:34:31;30.50;67.80
67273;DHT22;54190;49.770;9.250;2023-06-26T12:37:06;30.40;68.40
67273;DHT22;54190;49.770;9.250;2023-06-26T12:42:14;30.30;68.10
67273;DHT22;54190;49.770;9.250;2023-06-26T12:44:40;30.30;71.50
67273;DHT22;54190;49.770;9.250;2023-06-26T12:47:06;30.40;70.90
67273;DHT22;54190;49.770;9.250;2023-06-26T12:49:37;30.60;67.20
67273;DHT22;54190;49.770;9.250;2023-06-26T12:52:06;30.70;68.50
67273;DHT22;54190;49.770;9.250;2023-06-26T12:54:33;30.70;69.00
67273;DHT22;54190;49.770;9.250;2023-06-26T12:56:59;30.80;67.50
67273;DHT22;54190;49.770;9.250;2023-06-26T12:59:25;30.80;68.10
67273;DHT22;54190;49.770;9.250;2023-06-26T13:01:51;30.90;67.40
67273;DHT22;54190;49.770;9.250;2023-06-26T13:04:16;30.90;65.60
67273;DHT22;54190;49.770;9.250;2023-06-26T13:06:43;30.80;64.60
67273;DHT22;54190;49.770;9.250;2023-06-26T13:09:08;30.60;65.40
67273;DHT22;54190;49.770;9.250;2023-06-26T13:11:35;30.50;64.40
67273;DHT22;54190;49.770;9.250;2023-06-26T13:14:01;30.30;65.80
67273;DHT22;54190;49.770;9.250;2023-06-26T13:16:27;30.10;67.50
67273;DHT22;54190;49.770;9.250;2023-06-26T13:18:52;30.10;67.10
67273;DHT22;54190;49.770;9.250;2023-06-26T13:21:18;30.00;66.50
67273;DHT22;54190;49.770;9.250;2023-06-26T13:23:44;30.00;65.20
67273;DHT22;54190;49.770;9.250;2023-06-26T13:26:11;29.90;66.10
67273;DHT22;54190;49.770;9.250;2023-06-26T13:28:37;29.80;65.60
67273;DHT22;54190;49.770;9.250;2023-06-26T13:31:03;29.80;65.70
67273;DHT22;54190;49.770;9.250;2023-06-26T13:33:30;29.70;66.60
67273;DHT22;54190;49.770;9.250;2023-06-26T13:35:56;29.70;67.30
67273;DHT22;54190;49.770;9.250;2023-06-26T13:38:22;29.70;67.60
67273;DHT22;54190;49.770;9.250;2023-06-26T13:40:55;29.60;66.60
67273;DHT22;54190;49.770;9.250;2023-06-26T13:43:26;29.70;68.60
67273;DHT22;54190;49.770;9.250;2023-06-26T13:45:52;29.70;64.50
67273;DHT22;54190;49.770;9.250;2023-06-26T13:48:17;29.80;64.50
67273;DHT22;54190;49.770;9.250;2023-06-26T13:50:43;29.90;65.50
67273;DHT22;54190;49.770;9.250;2023-06-26T13:53:09;30.00;68.00
67273;DHT22;54190;49.770;9.250;2023-06-26T13:55:35;30.20;64.10
67273;DHT22;54190;49.770;9.250;2023-06-26T13:58:01;30.20;60.30
67273;DHT22;54190;49.770;9.250;2023-06-26T14:00:32;30.30;61.20
67273;DHT22;54190;49.770;9.250;2023-06-26T14:03:00;30.20;62.10
67273;DHT22;54190;49.770;9.250;2023-06-26T14:05:26;30.10;62.70
67273;DHT22;54190;49.770;9.250;2023-06-26T14:07:51;30.00;59.80
67273;DHT22;54190;49.770;9.250;2023-06-26T14:10:19;29.90;59.60
67273;DHT22;54190;49.770;9.250;2023-06-26T14:12:45;29.80;59.80
67273;DHT22;54190;49.770;9.250;2023-06-26T14:15:10;29.90;58.90
67273;DHT22;54190;49.770;9.250;2023-06-26T14:17:36;29.90;60.50
67273;DHT22;54190;49.770;9.250;2023-06-26T14:20:02;29.90;58.40
67273;DHT22;54190;49.770;9.250;2023-06-26T14:22:27;29.90;61.20
67273;DHT22;54190;49.770;9.250;2023-06-26T14:24:53;30.00;59.30
67273;DHT22;54190;49.770;9.250;2023-06-26T14:27:19;30.20;60.50
67273;DHT22;54190;49.770;9.250;2023-06-26T14:29:44;30.20;57.50
67273;DHT22;54190;49.770;9.250;2023-06-26T14:32:10;30.20;55.90
67273;DHT22;54190;49.770;9.250;2023-06-26T14:34:36;30.00;55.80
67273;DHT22;54190;49.770;9.250;2023-06-26T14:37:02;30.00;54.80
67273;DHT22;54190;49.770;9.250;2023-06-26T14:39:27;29.70;55.20
67273;DHT22;54190;49.770;9.250;2023-06-26T14:41:53;29.70;53.80
67273;DHT22;54190;49.770;9.250;2023-06-26T14:44:19;29.70;53.70
67273;DHT22;54190;49.770;9.250;2023-06-26T14:46:44;29.60;59.40
67273;DHT22;54190;49.770;9.250;2023-06-26T14:49:10;29.20;64.60
67273;DHT22;54190;49.770;9.250;2023-06-26T14:51:36;28.60;67.40
67273;DHT22;54190;49.770;9.250;2023-06-26T14:54:03;28.30;69.40
67273;DHT22;54190;49.770;9.250;2023-06-26T14:56:29;28.30;71.30
67273;DHT22;54190;49.770;9.250;2023-06-26T14:58:54;28.20;71.10
67273;DHT22;54190;49.770;9.250;2023-06-26T15:01:20;28.20;71.30
67273;DHT22;54190;49.770;9.250;2023-06-26T15:03:46;28.10;71.80
67273;DHT22;54190;49.770;9.250;2023-06-26T15:06:12;28.20;72.00
67273;DHT22;54190;49.770;9.250;2023-06-26T15:08:38;28.20;73.30
67273;DHT22;54190;49.770;9.250;2023-06-26T15:11:03;28.30;71.60
67273;DHT22;54190;49.770;9.250;2023-06-26T15:13:29;28.40;71.30
67273;DHT22;54190;49.770;9.250;2023-06-26T15:15:55;28.50;72.60
67273;DHT22;54190;49.770;9.250;2023-06-26T15:18:20;28.60;70.00
67273;DHT22;54190;49.770;9.250;2023-06-26T15:20:46;28.60;69.10
67273;DHT22;54190;49.770;9.250;2023-06-26T15:23:12;28.40;68.20
67273;DHT22;54190;49.770;9.250;2023-06-26T15:25:38;28.20;68.30
67273;DHT22;54190;49.770;9.250;2023-06-26T15:28:05;28.20;67.10
67273;DHT22;54190;49.770;9.250;2023-06-26T15:30:31;28.20;66.20
67273;DHT22;54190;49.770;9.250;2023-06-26T15:32:56;28.20;64.40
67273;DHT22;54190;49.770;9.250;2023-06-26T15:35:22;28.20;65.90
67273;DHT22;54190;49.770;9.250;2023-06-26T15:37:47;28.30;65.20
67273;DHT22;54190;49.770;9.250;2023-06-26T15:40:15;28.50;63.40